.
WxDataArchive / Data Records for 2008-03-23
2008-03-22 March 2008 2008-03-24

Data Records for Sunday, 23 March 2008

Time	Temp	Chill	HIndex	Humid	Dewpt	 Wind 	HiWind	WindDir	Rain 	Barom 
-----	----	-----	------	-----	-----	------	------	-------	-----	----- 
00:00	24.5	24.5	24.5	75	17.7	0	0	---	0.00	30.243 
00:05	24.7	24.7	24.7	74	17.6	0	0	---	0.00	30.238 
00:10	24.7	24.7	24.7	73	17.3	0	0	---	0.00	30.239 
00:15	24.8	24.8	24.8	73	17.4	0	0	---	0.00	30.239 
00:20	25.0	25.0	25.0	72	17.3	0	0	---	0.00	30.239 
00:25	25.0	25.0	25.0	72	17.3	0	0	---	0.00	30.239 
00:30	25.0	25.0	25.0	71	16.9	0	0	---	0.00	30.238 
00:35	25.0	25.0	25.0	71	16.9	0	0	---	0.00	30.238 
00:40	25.0	25.0	25.0	71	16.9	0	0	---	0.00	30.237 
00:45	25.0	25.0	25.0	71	16.9	0	0	---	0.00	30.237 
00:50	25.1	25.1	25.1	71	17.0	0	0	---	0.00	30.236 
00:55	25.3	25.3	25.3	70	16.9	0	0	---	0.00	30.236 
01:00	25.4	25.4	25.4	70	17.0	0	0	---	0.00	30.236 
01:05	25.4	25.4	25.4	70	17.0	0	0	---	0.00	30.234 
01:10	25.4	25.4	25.4	70	17.0	0	0	---	0.00	30.234 
01:15	25.4	25.4	25.4	70	17.0	0	0	---	0.00	30.232 
01:20	25.4	25.4	25.4	70	17.0	0	0	---	0.00	30.232 
01:25	25.4	25.4	25.4	70	17.0	0	0	---	0.00	30.234 
01:30	25.4	25.4	25.4	70	17.0	0	0	---	0.00	30.234 
01:35	25.3	25.3	25.3	70	16.9	0	0	---	0.00	30.231 
01:40	25.3	25.3	25.3	69	16.6	0	0	---	0.00	30.228 
01:45	25.1	25.1	25.1	69	16.4	0	0	---	0.00	30.224 
01:50	25.0	25.0	25.0	70	16.6	0	0	---	0.00	30.224 
01:55	24.8	24.8	24.8	70	16.4	0	0	---	0.00	30.224 
02:00	24.5	24.5	24.5	71	16.5	0	0	---	0.00	30.223 
02:05	24.4	24.4	24.4	71	16.4	0	0	---	0.00	30.223 
02:10	24.2	24.2	24.2	72	16.5	0	0	---	0.00	30.222 
02:15	24.1	24.1	24.1	72	16.4	0	0	---	0.00	30.221 
02:20	23.9	23.9	23.9	73	16.5	0	0	---	0.00	30.220 
02:25	23.8	23.8	23.8	73	16.4	0	0	---	0.00	30.219 
02:30	23.6	23.6	23.6	74	16.6	0	0	---	0.00	30.217 
02:35	23.6	23.6	23.6	74	16.6	0	0	---	0.00	30.216 
02:40	23.6	23.6	23.6	75	16.9	0	0	---	0.00	30.215 
02:45	23.9	23.9	23.9	75	17.2	0	0	---	0.00	30.215 
02:50	23.9	23.9	23.9	75	17.2	0	0	---	0.00	30.214 
02:55	23.8	23.8	23.8	75	17.1	0	0	---	0.00	30.211 
03:00	23.6	23.6	23.6	76	17.2	0	0	---	0.00	30.211 
03:05	23.5	23.5	23.5	76	17.1	0	0	---	0.00	30.209 
03:10	23.3	23.3	23.3	76	16.9	0	0	---	0.00	30.207 
03:15	23.3	23.3	23.3	77	17.2	0	0	---	0.00	30.209 
03:20	23.2	23.2	23.2	77	17.1	0	0	---	0.00	30.207 
03:25	23.0	23.0	23.0	77	16.9	0	0	---	0.00	30.206 
03:30	22.9	22.9	22.9	78	17.1	0	0	---	0.00	30.206 
03:35	22.9	22.9	22.9	78	17.1	0	0	---	0.00	30.206 
03:40	22.9	22.9	22.9	79	17.4	0	0	---	0.00	30.205 
03:45	22.9	22.9	22.9	80	17.7	0	0	---	0.00	30.204 
03:50	23.0	23.0	23.0	80	17.8	0	0	---	0.00	30.203 
03:55	23.0	23.0	23.0	80	17.8	0	0	---	0.00	30.204 
04:00	23.2	23.2	23.2	81	18.3	0	0	---	0.00	30.205 
04:05	23.2	23.2	23.2	81	18.3	0	0	---	0.00	30.205 
04:10	23.2	23.2	23.2	81	18.3	0	0	---	0.00	30.204 
04:15	23.2	23.2	23.2	81	18.3	0	0	---	0.00	30.205 
04:20	23.2	23.2	23.2	82	18.5	0	0	---	0.00	30.206 
04:25	23.0	23.0	23.0	82	18.3	0	0	---	0.00	30.206 
04:30	23.0	23.0	23.0	82	18.3	0	0	---	0.00	30.206 
04:35	22.9	22.9	22.9	82	18.2	0	0	---	0.00	30.206 
04:40	22.7	22.7	22.7	82	18.0	0	0	---	0.00	30.206 
04:45	22.5	22.5	22.5	82	17.9	0	0	---	0.00	30.205 
04:50	22.2	22.2	22.2	82	17.6	0	0	---	0.00	30.203 
04:55	22.1	22.1	22.1	83	17.7	0	0	---	0.00	30.203 
05:00	21.9	21.9	21.9	83	17.5	0	0	---	0.00	30.203 
05:05	21.8	21.8	21.8	83	17.4	0	0	---	0.00	30.205 
05:10	21.6	21.6	21.6	84	17.5	0	0	---	0.00	30.204 
05:15	21.4	21.4	21.4	84	17.3	0	0	---	0.00	30.203 
05:20	21.1	21.1	21.1	84	17.0	0	0	---	0.00	30.204 
05:25	21.1	21.1	21.1	84	17.0	0	0	---	0.00	30.205 
05:30	21.0	21.0	21.0	85	17.2	0	0	---	0.00	30.206 
05:35	21.0	21.0	21.0	85	17.2	0	1	292	0.00	30.207 
05:40	20.8	20.8	20.8	85	17.0	0	0	---	0.00	30.206 
05:45	20.6	20.6	20.6	85	16.8	0	0	---	0.00	30.203 
05:50	20.5	20.5	20.5	85	16.7	0	0	---	0.00	30.202 
05:55	20.3	20.3	20.3	85	16.5	0	0	---	0.00	30.204 
06:00	20.2	20.2	20.2	86	16.7	0	0	---	0.00	30.202 
06:05	20.2	20.2	20.2	86	16.7	0	0	---	0.00	30.203 
06:10	20.0	20.0	20.0	86	16.5	0	0	---	0.00	30.204 
06:15	20.0	20.0	20.0	87	16.8	0	0	---	0.00	30.203 
06:20	20.0	20.0	20.0	87	16.8	0	0	---	0.00	30.204 
06:25	19.9	19.9	19.9	87	16.7	0	0	---	0.00	30.205 
06:30	19.9	19.9	19.9	87	16.7	0	0	---	0.00	30.205 
06:35	20.0	20.0	20.0	88	17.0	0	0	---	0.00	30.207 
06:40	20.2	20.2	20.2	88	17.2	0	0	---	0.00	30.208 
06:45	20.2	20.2	20.2	88	17.2	0	0	---	0.00	30.208 
06:50	20.2	20.2	20.2	88	17.2	0	0	---	0.00	30.209 
06:55	20.3	20.3	20.3	88	17.3	0	0	---	0.00	30.211 
07:00	20.5	20.5	20.5	88	17.5	0	0	---	0.00	30.209 
07:05	20.6	20.6	20.6	89	17.9	0	0	---	0.00	30.214 
07:10	21.0	21.0	21.0	89	18.3	0	0	---	0.00	30.216 
07:15	21.3	21.3	21.3	89	18.6	0	0	---	0.00	30.218 
07:20	21.8	21.8	21.8	89	19.1	0	0	---	0.00	30.219 
07:25	22.4	22.4	22.4	89	19.7	0	0	---	0.00	30.221 
07:30	22.9	22.9	22.9	89	20.2	0	0	---	0.00	30.223 
07:35	23.5	23.5	23.5	89	20.7	0	1	292	0.00	30.225 
07:40	23.9	23.9	23.9	88	20.9	0	1	292	0.00	30.224 
07:45	24.4	24.4	24.4	87	21.1	0	1	292	0.00	30.225 
07:50	24.8	24.8	24.8	86	21.2	0	0	---	0.00	30.226 
07:55	25.4	25.4	25.4	85	21.5	0	1	292	0.00	30.226 
08:00	26.0	26.0	26.0	83	21.6	0	1	292	0.00	30.224 
08:05	26.6	26.6	26.6	81	21.6	0	1	292	0.00	30.228 
08:10	27.2	27.2	27.2	80	21.9	0	1	292	0.00	30.227 
08:15	27.6	27.6	27.6	78	21.7	0	1	292	0.00	30.227 
08:20	28.1	28.1	28.1	77	21.8	0	1	292	0.00	30.227 
08:25	28.5	28.5	28.5	75	21.6	0	1	292	0.00	30.227 
08:30	28.8	28.8	28.8	73	21.3	0	2	292	0.00	30.225 
08:35	29.3	29.3	29.3	72	21.4	0	2	292	0.00	30.225 
08:40	29.5	29.5	29.5	71	21.3	0	1	292	0.00	30.226 
08:45	30.1	30.1	30.1	70	21.5	0	1	292	0.00	30.226 
08:50	30.6	30.6	30.6	69	21.7	0	3	292	0.00	30.227 
08:55	30.9	30.9	30.9	66	20.9	0	2	292	0.00	30.225 
09:00	31.5	31.5	31.5	66	21.5	0	2	292	0.00	30.225 
09:05	31.8	31.8	31.8	65	21.4	1	3	248	0.00	30.227 
09:10	32.4	32.4	32.4	64	21.6	0	2	248	0.00	30.227 
09:15	32.9	32.9	32.9	61	20.9	0	1	248	0.00	30.224 
09:20	33.4	33.4	33.4	62	21.8	0	2	248	0.00	30.225 
09:25	33.7	33.7	33.7	59	20.9	1	3	248	0.00	30.225 
09:30	34.0	34.0	34.0	58	20.8	0	2	248	0.00	30.226 
09:35	34.4	34.4	34.4	57	20.8	1	3	270	0.00	30.227 
09:40	35.0	35.0	35.0	58	21.7	1	2	270	0.00	30.227 
09:45	35.5	35.5	35.5	55	21.0	1	2	270	0.00	30.226 
09:50	35.6	35.6	35.6	53	20.2	1	3	270	0.00	30.226 
09:55	35.9	35.9	35.9	54	20.9	0	2	315	0.00	30.225 
10:00	36.3	36.3	36.3	50	19.5	1	3	225	0.00	30.229 
10:05	36.8	36.8	36.8	52	20.8	1	2	225	0.00	30.230 
10:10	36.9	36.9	36.9	50	20.0	0	2	315	0.00	30.229 
10:15	37.0	37.0	37.0	49	19.6	1	3	248	0.00	30.228 
10:20	37.6	37.6	37.6	49	20.2	1	3	112	0.00	30.228 
10:25	37.9	37.9	37.9	50	20.9	1	3	112	0.00	30.227 
10:30	38.2	38.2	38.2	50	21.2	1	3	270	0.00	30.227 
10:35	38.6	38.6	38.6	45	19.1	1	2	248	0.00	30.227 
10:40	38.9	38.9	38.9	48	20.9	2	5	270	0.00	30.223 
10:45	39.2	39.2	39.2	46	20.2	1	4	270	0.00	30.224 
10:50	39.2	39.2	39.2	45	19.7	1	2	270	0.00	30.226 
10:55	39.2	39.2	39.2	44	19.1	1	5	270	0.00	30.228 
11:00	39.1	39.1	39.1	38	15.7	2	7	248	0.00	30.226 
11:05	39.2	39.2	39.2	41	17.5	1	5	248	0.00	30.227 
11:10	39.2	39.2	39.2	39	16.3	1	4	248	0.00	30.225 
11:15	39.5	39.5	39.5	39	16.6	1	2	248	0.00	30.224 
11:20	39.6	39.6	39.6	40	17.3	1	2	292	0.00	30.224 
11:25	39.9	39.9	39.9	42	18.7	1	4	248	0.00	30.223 
11:30	39.3	39.3	39.3	39	16.4	1	3	338	0.00	30.222 
11:35	39.6	39.6	39.6	41	17.9	1	4	270	0.00	30.222 
11:40	39.8	39.8	39.8	40	17.5	1	3	248	0.00	30.221 
11:45	40.1	40.1	40.1	44	20.0	1	4	270	0.00	30.219 
11:50	39.9	39.9	39.9	42	18.7	1	4	292	0.00	30.220 
11:55	40.2	40.2	40.2	42	19.0	1	4	270	0.00	30.220 
12:00	39.8	39.8	39.8	39	16.9	1	4	22	0.00	30.219 
12:05	39.9	39.9	39.9	42	18.7	1	6	292	0.00	30.219 
12:10	39.8	39.8	39.8	40	17.5	1	5	315	0.00	30.218 
12:15	40.2	40.2	40.2	42	19.0	2	6	270	0.00	30.218 
12:20	40.3	40.3	40.3	41	18.5	2	4	270	0.00	30.216 
12:25	40.3	40.3	40.3	44	20.1	2	5	338	0.00	30.218 
12:30	40.9	40.9	40.9	45	21.2	1	4	270	0.00	30.214 
12:35	41.1	41.1	41.1	44	20.9	1	3	292	0.00	30.214 
12:40	40.9	40.9	40.9	43	20.1	1	4	338	0.00	30.211 
12:45	40.8	40.8	40.8	43	20.1	2	4	338	0.00	30.214 
12:50	41.1	41.1	41.1	46	21.9	1	5	248	0.00	30.214 
12:55	41.3	41.3	41.3	41	19.4	2	4	270	0.00	30.215 
13:00	41.3	41.3	41.3	42	20.0	1	4	270	0.00	30.213 
13:05	41.1	41.1	41.1	42	19.8	1	4	270	0.00	30.213 
13:10	41.1	41.1	41.1	40	18.6	2	5	248	0.00	30.210 
13:15	41.1	41.1	41.1	40	18.6	1	6	248	0.00	30.208 
13:20	41.2	41.2	41.2	41	19.3	1	3	270	0.00	30.207 
13:25	41.3	41.3	41.3	43	20.5	1	6	315	0.00	30.205 
13:30	41.5	41.5	41.5	44	21.2	1	5	248	0.00	30.203 
13:35	41.5	41.5	41.5	39	18.4	1	4	315	0.00	30.203 
13:40	41.3	41.3	41.3	40	18.8	1	4	270	0.00	30.202 
13:45	41.1	41.1	41.1	43	20.3	1	3	292	0.00	30.200 
13:50	40.9	40.9	40.9	38	17.3	1	5	248	0.00	30.198 
13:55	41.1	41.1	41.1	38	17.5	2	6	248	0.00	30.198 
14:00	41.2	41.2	41.2	41	19.3	1	5	248	0.00	30.195 
14:05	41.6	41.6	41.6	42	20.2	1	6	292	0.00	30.194 
14:10	41.6	41.6	41.6	45	21.9	1	3	248	0.00	30.192 
14:15	41.2	41.2	41.2	44	21.0	1	3	338	0.00	30.190 
14:20	41.1	41.1	41.1	46	21.9	2	5	338	0.00	30.189 
14:25	41.1	41.1	41.1	44	20.9	1	5	292	0.00	30.191 
14:30	40.5	40.5	40.5	41	18.7	1	3	338	0.00	30.188 
14:35	41.5	41.5	41.5	41	19.6	2	4	248	0.00	30.188 
14:40	41.9	41.9	41.9	37	17.5	2	5	248	0.00	30.186 
14:45	42.8	42.8	42.8	41	20.7	2	4	248	0.00	30.186 
14:50	43.1	43.1	43.1	33	16.0	2	5	248	0.00	30.187 
14:55	43.1	43.1	43.1	34	16.7	1	4	248	0.00	30.187 
15:00	42.6	42.6	42.6	34	16.2	2	6	112	0.00	30.185 
15:05	42.6	42.6	42.6	41	20.6	1	4	270	0.00	30.186 
15:10	42.5	42.5	42.5	39	19.3	1	3	338	0.00	30.186 
15:15	42.1	42.1	42.1	42	20.7	1	4	270	0.00	30.187 
15:20	41.8	41.8	41.8	43	21.0	0	2	225	0.00	30.187 
15:25	41.5	41.5	41.5	43	20.7	0	2	315	0.00	30.187 
15:30	41.3	41.3	41.3	43	20.5	1	4	248	0.00	30.187 
15:35	41.3	41.3	41.3	43	20.5	1	4	248	0.00	30.187 
15:40	41.8	41.8	41.8	41	19.8	1	3	248	0.00	30.187 
15:45	41.6	41.6	41.6	43	20.8	2	7	248	0.00	30.187 
15:50	41.2	41.2	41.2	45	21.5	1	4	248	0.00	30.189 
15:55	40.9	40.9	40.9	41	19.0	0	2	292	0.00	30.187 
16:00	40.8	40.8	40.8	44	20.6	2	4	292	0.00	30.188 
16:05	40.6	40.6	40.6	43	19.9	1	3	292	0.00	30.190 
16:10	40.2	40.2	40.2	46	21.1	0	2	292	0.00	30.189 
16:15	40.3	40.3	40.3	44	20.1	0	2	270	0.00	30.188 
16:20	40.3	40.3	40.3	44	20.1	1	2	248	0.00	30.188 
16:25	40.1	40.1	40.1	48	22.0	0	3	248	0.00	30.188 
16:30	39.3	39.3	39.3	51	22.7	3	9	270	0.00	30.190 
16:35	39.1	39.1	39.1	54	23.9	1	4	248	0.00	30.193 
16:40	39.1	39.1	39.1	52	23.0	0	2	248	0.00	30.192 
16:45	39.2	39.2	39.2	51	22.6	0	2	248	0.00	30.190 
16:50	39.5	39.5	39.5	50	22.4	0	1	338	0.00	30.190 
16:55	39.6	39.6	39.6	49	22.0	0	3	338	0.00	30.187 
17:00	39.8	39.8	39.8	46	20.7	2	5	248	0.00	30.187 
17:05	39.8	39.8	39.8	48	21.7	1	3	292	0.00	30.189 
17:10	39.8	39.8	39.8	46	20.7	1	5	248	0.00	30.189 
17:15	39.8	39.8	39.8	44	19.7	1	6	315	0.00	30.189 
17:20	39.8	39.8	39.8	44	19.7	1	3	248	0.00	30.190 
17:25	39.6	39.6	39.6	44	19.5	1	4	248	0.00	30.190 
17:30	39.6	39.6	39.6	44	19.5	1	6	270	0.00	30.191 
17:35	39.5	39.5	39.5	44	19.4	1	4	248	0.00	30.191 
17:40	39.5	39.5	39.5	48	21.5	1	2	338	0.00	30.192 
17:45	39.2	39.2	39.2	50	22.1	1	5	270	0.00	30.197 
17:50	38.5	38.5	38.5	55	23.8	2	5	315	0.00	30.200 
17:55	38.0	38.0	38.0	58	24.6	1	3	315	0.00	30.200 
18:00	37.5	37.5	37.5	58	24.1	2	5	315	0.00	30.202 
18:05	37.0	37.0	37.0	61	24.8	1	4	292	0.00	30.203 
18:10	36.8	36.8	36.8	62	25.0	1	3	315	0.00	30.201 
18:15	36.5	36.5	36.5	62	24.7	1	3	270	0.00	30.200 
18:20	36.5	36.5	36.5	62	24.7	1	3	270	0.00	30.203 
18:25	36.5	36.5	36.5	61	24.3	2	5	292	0.00	30.203 
18:30	36.3	36.3	36.3	61	24.2	1	3	270	0.00	30.207 
18:35	36.2	36.2	36.2	62	24.5	1	3	315	0.00	30.208 
18:40	35.9	35.9	35.9	63	24.5	1	3	315	0.00	30.209 
18:45	35.6	35.6	35.6	64	24.6	0	2	292	0.00	30.208 
18:50	35.3	35.3	35.3	64	24.4	1	4	292	0.00	30.209 
18:55	35.2	35.2	35.2	65	24.6	0	2	0	0.00	30.208 
19:00	34.9	34.9	34.9	66	24.7	0	2	338	0.00	30.206 
19:05	34.6	34.6	34.6	67	24.8	0	1	338	0.00	30.202 
19:10	34.3	34.3	34.3	69	25.2	0	1	338	0.00	30.203 
19:15	34.1	34.1	34.1	69	25.0	0	1	338	0.00	30.202 
19:20	33.8	33.8	33.8	70	25.1	0	0	---	0.00	30.203 
19:25	33.7	33.7	33.7	70	25.0	0	0	---	0.00	30.201 
19:30	33.4	33.4	33.4	70	24.7	0	0	---	0.00	30.201 
19:35	33.2	33.2	33.2	70	24.5	0	0	---	0.00	30.203 
19:40	32.9	32.9	32.9	71	24.5	0	0	---	0.00	30.205 
19:45	32.7	32.7	32.7	72	24.7	0	0	---	0.00	30.205 
19:50	32.5	32.5	32.5	73	24.8	0	0	---	0.00	30.207 
19:55	32.2	32.2	32.2	73	24.5	0	1	338	0.00	30.207 
20:00	31.8	31.8	31.8	74	24.5	0	0	---	0.00	30.209 
20:05	31.6	31.6	31.6	74	24.3	0	0	---	0.00	30.204 
20:10	31.2	31.2	31.2	75	24.2	0	0	---	0.00	30.209 
20:15	31.0	31.0	31.0	76	24.3	0	0	---	0.00	30.210 
20:20	30.7	30.7	30.7	77	24.4	0	0	---	0.00	30.212 
20:25	30.6	30.6	30.6	77	24.3	0	0	---	0.00	30.215 
20:30	30.3	30.3	30.3	78	24.3	0	0	---	0.00	30.217 
20:35	30.1	30.1	30.1	78	24.1	0	0	---	0.00	30.218 
20:40	30.1	30.1	30.1	79	24.4	0	0	---	0.00	30.218 
20:45	30.0	30.0	30.0	79	24.3	0	0	---	0.00	30.218 
20:50	29.8	29.8	29.8	79	24.1	0	0	---	0.00	30.219 
20:55	29.7	29.7	29.7	80	24.3	0	0	---	0.00	30.219 
21:00	29.4	29.4	29.4	80	24.0	0	0	---	0.00	30.220 
21:05	29.3	29.3	29.3	80	23.9	0	0	---	0.00	30.219 
21:10	29.1	29.1	29.1	80	23.7	0	0	---	0.00	30.220 
21:15	29.0	29.0	29.0	81	23.9	0	0	---	0.00	30.220 
21:20	28.8	28.8	28.8	82	24.0	0	0	---	0.00	30.220 
21:25	28.8	28.8	28.8	82	24.0	0	0	---	0.00	30.219 
21:30	28.7	28.7	28.7	82	23.9	0	0	---	0.00	30.219 
21:35	28.5	28.5	28.5	82	23.7	0	0	---	0.00	30.219 
21:40	28.2	28.2	28.2	82	23.4	0	0	---	0.00	30.219 
21:45	27.9	27.9	27.9	82	23.1	0	0	---	0.00	30.219 
21:50	27.8	27.8	27.8	83	23.3	0	0	---	0.00	30.219 
21:55	27.5	27.5	27.5	83	23.0	0	0	---	0.00	30.220 
22:00	27.3	27.3	27.3	84	23.1	0	0	---	0.00	30.221 
22:05	27.3	27.3	27.3	84	23.1	0	0	---	0.00	30.219 
22:10	27.2	27.2	27.2	85	23.3	0	0	---	0.00	30.220 
22:15	27.3	27.3	27.3	85	23.4	0	0	---	0.00	30.220 
22:20	27.3	27.3	27.3	86	23.7	0	0	---	0.00	30.221 
22:25	27.5	27.5	27.5	86	23.9	0	0	---	0.00	30.220 
22:30	27.6	27.6	27.6	86	24.0	0	0	---	0.00	30.221 
22:35	27.9	27.9	27.9	86	24.3	0	1	338	0.00	30.221 
22:40	28.4	28.4	28.4	86	24.8	0	0	---	0.00	30.222 
22:45	28.7	28.7	28.7	85	24.8	0	1	338	0.00	30.220 
22:50	28.8	28.8	28.8	84	24.6	0	1	338	0.00	30.221 
22:55	29.0	29.0	29.0	82	24.2	0	1	338	0.00	30.220 
23:00	29.0	29.0	29.0	81	23.9	0	0	---	0.00	30.218 
23:05	29.0	29.0	29.0	81	23.9	0	0	---	0.00	30.218 
23:10	28.8	28.8	28.8	80	23.4	0	0	---	0.00	30.219 
23:15	28.7	28.7	28.7	80	23.3	0	1	338	0.00	30.218 
23:20	28.7	28.7	28.7	80	23.3	0	1	338	0.00	30.219 
23:25	28.5	28.5	28.5	79	22.8	0	0	---	0.00	30.219 
23:30	28.5	28.5	28.5	79	22.8	0	1	338	0.00	30.218 
23:35	28.4	28.4	28.4	78	22.4	0	1	338	0.00	30.218 
23:40	28.4	28.4	28.4	77	22.1	0	1	338	0.00	30.219 
23:45	28.4	28.4	28.4	76	21.8	0	0	---	0.00	30.218 
23:50	28.2	28.2	28.2	76	21.6	0	0	---	0.00	30.218 
23:55	28.1	28.1	28.1	75	21.2	0	0	---	0.00	30.219 

CoCoRaHS
IN-AL-39
A2 Web Hosting
Creative Commons License
GoDaddy
Look for:

loaded 2017-12-12 01:37:28 • last modified 2010-11-18 10:43:29
Privacy PolicyDisclaimer
• wx.awcolley.com is powered by PmWiki v.2002016 •
• all content (unless otherwise noted) © 2017 A W Colley